VECC/CCU METAR and TAF weather

Enter ICAO airport designator
Station Type Date Time Source
VECC METAR 2020/03/29 12:30 UTC NOAA

VECC 291230Z 00000KT 4000 HZ NSC 34/18 Q1006 NOSIG


Station Type Date Time Source
VECC Decoded METAR 2020/03/29 12:30 UTC NOAA

Calcutta / Dum Dum, India (VECC) 22-39N 088-27E 6M
Mar 29, 2020 - 08:30 AM EDT / 2020.03.29 1230 UTC
Wind: Calm:0
Visibility: 2 mile(s):0
Weather: haze
Temperature: 93 F (34 C)
Heat index: 94.6 F (34.8 C):1
Dew Point: 64 F (18 C)
Relative Humidity: 38%
Pressure (altimeter): 29.71 in. Hg (1006 hPa)
ob: VECC 291230Z 00000KT 4000 HZ NSC 34/18 Q1006 NOSIG
cycle: 12

Station Type Date Time Source
VECC TAF 2020/03/29 12:46 UTC NOAA

TAF VECC 291100Z 2912/3018 28005KT 3500 HZ FEW020
BECMG 2923/3001 00000KT 2600 HZ
BECMG 3002/3004 33008KT 3500 HZ
BECMG 3006/3008 5000 HZ
BECMG 3016/3018 00000KT 3200 HZ

Example: see airport list